createdAt,value
2023-11-11T00:00:17.263Z,6.88
2023-11-11T00:03:19.619Z,6.74
2023-11-11T00:06:21.880Z,6.81
2023-11-11T00:09:24.623Z,6.72
2023-11-11T00:12:28.402Z,6.65
2023-11-11T00:15:30.675Z,6.56
2023-11-11T00:18:32.770Z,6.48
2023-11-11T00:21:40.273Z,6.32
2023-11-11T00:24:43.822Z,6.42
2023-11-11T00:27:46.553Z,6.36
2023-11-11T00:30:48.768Z,6.06
2023-11-11T00:33:50.995Z,6.14
2023-11-11T00:36:54.232Z,6.10
2023-11-11T00:39:59.822Z,6.10
2023-11-11T00:43:02.982Z,6.18
2023-11-11T00:46:05.420Z,6.15
2023-11-11T00:49:08.920Z,6.15
2023-11-11T00:52:11.531Z,6.11
2023-11-11T00:55:13.807Z,6.13
2023-11-11T00:58:15.921Z,6.16
2023-11-11T01:01:18.197Z,6.10
2023-11-11T01:04:20.604Z,6.12
2023-11-11T01:07:22.806Z,5.91
2023-11-11T01:10:25.909Z,6.06
2023-11-11T01:13:28.071Z,5.86
2023-11-11T01:16:30.209Z,5.99
2023-11-11T01:19:32.640Z,5.99
2023-11-11T01:22:34.897Z,6.03
2023-11-11T01:25:37.254Z,6.22
2023-11-11T01:28:40.771Z,6.26
2023-11-11T01:31:43.630Z,6.26
2023-11-11T01:34:46.353Z,6.29
2023-11-11T01:37:48.664Z,6.45
2023-11-11T01:40:50.709Z,6.24
2023-11-11T01:43:53.644Z,6.49
2023-11-11T01:46:56.663Z,6.41
2023-11-11T01:50:00.436Z,6.56
2023-11-11T01:53:02.947Z,5.99
2023-11-11T01:56:06.469Z,6.45
2023-11-11T01:59:09.842Z,6.45
2023-11-11T02:02:12.767Z,6.40
2023-11-11T02:05:15.876Z,6.35
2023-11-11T02:08:18.183Z,6.38
2023-11-11T02:11:21.097Z,6.36
2023-11-11T02:14:23.411Z,6.31
2023-11-11T02:17:27.421Z,6.35
2023-11-11T02:20:34.650Z,6.44
2023-11-11T02:23:38.399Z,6.51
2023-11-11T02:26:40.640Z,6.50
2023-11-11T02:29:46.720Z,6.60
2023-11-11T02:32:50.131Z,6.59
2023-11-11T02:35:52.604Z,6.52
2023-11-11T02:38:55.276Z,6.68
2023-11-11T02:41:57.402Z,6.51
2023-11-11T02:44:59.465Z,6.58
2023-11-11T02:48:05.548Z,6.49
2023-11-11T02:51:07.665Z,6.54
2023-11-11T02:54:10.316Z,6.46
2023-11-11T02:57:12.518Z,6.49
2023-11-11T03:00:15.474Z,6.22
2023-11-11T03:03:17.607Z,6.47
2023-11-11T03:06:19.745Z,6.44
2023-11-11T03:09:21.907Z,6.69
2023-11-11T03:12:24.260Z,6.60
2023-11-11T03:15:26.356Z,6.55
2023-11-11T03:18:28.491Z,6.51
2023-11-11T03:21:30.606Z,6.53
2023-11-11T03:24:33.329Z,6.46
2023-11-11T03:27:35.677Z,6.59
2023-11-11T03:30:37.755Z,6.35
2023-11-11T03:33:40.229Z,6.50
2023-11-11T03:36:42.832Z,6.50
2023-11-11T03:39:46.305Z,6.35
2023-11-11T03:42:48.715Z,6.36
2023-11-11T03:45:50.904Z,6.50
2023-11-11T03:48:54.263Z,6.49
2023-11-11T03:51:56.433Z,6.49
2023-11-11T03:54:58.448Z,6.46
2023-11-11T03:58:00.720Z,6.41
2023-11-11T04:01:02.842Z,6.37
2023-11-11T04:04:05.183Z,6.30
2023-11-11T04:07:07.309Z,6.39
2023-11-11T04:10:10.339Z,6.37
2023-11-11T04:13:14.484Z,6.22
2023-11-11T04:16:16.553Z,5.79
2023-11-11T04:19:18.998Z,6.22
2023-11-11T04:22:21.419Z,6.19
2023-11-11T04:25:23.560Z,6.15
2023-11-11T04:28:27.197Z,6.00
2023-11-11T04:31:29.392Z,6.32
2023-11-11T04:34:31.591Z,6.33
2023-11-11T04:37:33.697Z,6.37
2023-11-11T04:40:37.656Z,6.31
2023-11-11T04:43:39.801Z,6.37
2023-11-11T04:46:41.997Z,6.33
2023-11-11T04:49:45.347Z,6.31
2023-11-11T04:52:47.578Z,6.27
2023-11-11T04:55:49.728Z,6.21
2023-11-11T04:58:51.790Z,6.23
2023-11-11T05:01:55.376Z,6.39
2023-11-11T05:04:57.629Z,6.32
2023-11-11T05:07:59.687Z,6.24
2023-11-11T05:11:02.930Z,6.17
2023-11-11T05:14:09.369Z,6.01
2023-11-11T05:17:11.523Z,5.91
2023-11-11T05:20:18.611Z,5.82
2023-11-11T05:23:21.291Z,6.27
2023-11-11T05:26:23.374Z,6.17
2023-11-11T05:29:25.436Z,6.14
2023-11-11T05:32:30.262Z,6.05
2023-11-11T05:35:32.502Z,5.93
2023-11-11T05:38:34.755Z,5.92
2023-11-11T05:41:39.055Z,5.90
2023-11-11T05:44:44.141Z,5.74
2023-11-11T05:47:46.596Z,5.88
2023-11-11T05:50:48.849Z,5.86
2023-11-11T05:53:51.012Z,5.75
2023-11-11T05:56:53.044Z,5.86
2023-11-11T05:59:55.125Z,5.74
2023-11-11T06:02:57.831Z,5.87
2023-11-11T06:06:01.910Z,5.81
2023-11-11T06:09:05.072Z,5.92
2023-11-11T06:12:07.465Z,5.94
2023-11-11T06:15:10.909Z,5.95
2023-11-11T06:18:14.179Z,5.89
2023-11-11T06:21:16.267Z,5.85
2023-11-11T06:24:18.830Z,5.79
2023-11-11T06:27:20.948Z,5.75
2023-11-11T06:30:23.070Z,5.67
2023-11-11T06:33:25.285Z,5.62
2023-11-11T06:36:27.475Z,5.49
2023-11-11T06:39:31.924Z,5.60
2023-11-11T06:42:34.853Z,5.60
2023-11-11T06:45:36.966Z,5.61
2023-11-11T06:48:39.262Z,5.59
2023-11-11T06:51:41.347Z,5.61
2023-11-11T06:54:45.086Z,5.60
2023-11-11T06:57:47.254Z,5.59
2023-11-11T07:00:49.459Z,5.57
2023-11-11T07:03:52.056Z,5.59
2023-11-11T07:06:54.228Z,5.57
2023-11-11T07:09:56.407Z,5.61
2023-11-11T07:12:58.792Z,5.54
2023-11-11T07:16:01.756Z,5.63
2023-11-11T07:19:05.282Z,5.68
2023-11-11T07:25:13.260Z,5.74
2023-11-11T07:28:16.612Z,5.77
2023-11-11T07:31:20.700Z,5.81
2023-11-11T07:34:23.176Z,5.84
2023-11-11T07:37:28.616Z,5.85
2023-11-11T07:40:30.721Z,5.91
2023-11-11T07:43:33.162Z,5.95
2023-11-11T07:46:35.520Z,6.01
2023-11-11T07:49:39.460Z,6.21
2023-11-11T07:52:41.526Z,6.33
2023-11-11T07:55:43.527Z,6.40
2023-11-11T07:58:48.661Z,6.47
2023-11-11T08:01:51.038Z,6.73
2023-11-11T08:04:53.248Z,6.88
2023-11-11T08:08:08.204Z,7.02
2023-11-11T08:11:16.866Z,7.09
2023-11-11T08:14:19.105Z,7.24
2023-11-11T08:17:23.914Z,7.32
2023-11-11T08:20:26.089Z,7.12
2023-11-11T08:23:28.309Z,7.51
2023-11-11T08:26:30.530Z,7.56
2023-11-11T08:29:32.751Z,7.49
2023-11-11T08:32:34.942Z,7.53
2023-11-11T08:35:37.031Z,7.61
2023-11-11T08:38:39.461Z,7.78
2023-11-11T08:41:41.761Z,7.59
2023-11-11T08:44:44.330Z,7.61
2023-11-11T08:47:46.761Z,7.43
2023-11-11T08:50:49.603Z,7.61
2023-11-11T08:53:52.191Z,7.68
2023-11-11T08:56:55.776Z,7.65
2023-11-11T08:59:57.805Z,7.70
2023-11-11T09:02:59.919Z,7.75
2023-11-11T09:06:03.617Z,7.91
2023-11-11T09:09:05.985Z,7.92
2023-11-11T09:12:08.390Z,7.96
2023-11-11T09:15:12.312Z,7.96
2023-11-11T09:18:15.613Z,8.02
2023-11-11T09:21:17.721Z,8.08
2023-11-11T09:24:19.949Z,8.16
2023-11-11T09:27:22.036Z,8.09
2023-11-11T09:30:24.877Z,8.32
2023-11-11T09:33:27.098Z,8.55
2023-11-11T09:36:29.991Z,8.62
2023-11-11T09:39:32.187Z,8.68
2023-11-11T09:42:34.451Z,8.89
2023-11-11T09:45:36.685Z,8.79
2023-11-11T09:48:39.367Z,8.76
2023-11-11T09:51:42.263Z,8.73
2023-11-11T09:54:47.825Z,8.98
2023-11-11T09:57:50.966Z,9.19
2023-11-11T10:00:53.375Z,9.04
2023-11-11T10:03:57.599Z,8.96
2023-11-11T10:06:59.767Z,9.13
2023-11-11T10:10:02.225Z,8.98
2023-11-11T10:13:04.532Z,9.01
2023-11-11T10:16:27.169Z,8.72
2023-11-11T10:19:29.276Z,8.67
2023-11-11T10:22:31.406Z,8.93
2023-11-11T10:25:33.929Z,8.71
2023-11-11T10:28:36.000Z,8.77
2023-11-11T10:31:38.915Z,8.68
2023-11-11T10:34:42.108Z,8.79
2023-11-11T10:37:45.610Z,8.87
2023-11-11T10:40:48.445Z,8.65
2023-11-11T10:43:51.555Z,8.66
2023-11-11T10:46:55.300Z,8.66
2023-11-11T10:50:00.267Z,8.72
2023-11-11T10:53:05.461Z,8.55
2023-11-11T10:56:08.274Z,8.70
2023-11-11T10:59:12.060Z,8.79
2023-11-11T11:02:15.199Z,8.72
2023-11-11T11:05:30.007Z,8.84
2023-11-11T11:08:47.438Z,8.79
2023-11-11T11:12:16.629Z,8.84
2023-11-11T11:15:20.983Z,8.64
2023-11-11T11:18:26.598Z,8.68
2023-11-11T11:21:30.094Z,8.63
2023-11-11T11:24:34.277Z,8.57
2023-11-11T11:27:36.279Z,8.81
2023-11-11T11:30:57.368Z,8.64
2023-11-11T11:34:00.080Z,8.51
2023-11-11T11:37:02.864Z,8.62
2023-11-11T11:40:10.570Z,8.80
2023-11-11T11:43:13.101Z,8.69
2023-11-11T11:46:15.343Z,8.74
2023-11-11T11:49:17.377Z,8.60
2023-11-11T11:52:20.815Z,8.72
2023-11-11T11:55:26.671Z,8.58
2023-11-11T11:58:29.749Z,8.65
2023-11-11T12:01:34.608Z,8.56
2023-11-11T12:04:37.199Z,8.46
2023-11-11T12:07:40.089Z,8.39
2023-11-11T12:11:02.818Z,8.34
2023-11-11T12:14:23.508Z,8.16
2023-11-11T12:17:27.165Z,8.22
2023-11-11T12:20:45.177Z,8.17
2023-11-11T12:23:49.421Z,7.97
2023-11-11T12:26:52.292Z,7.99
2023-11-11T12:29:54.739Z,7.88
2023-11-11T12:33:07.941Z,7.82
2023-11-11T12:36:10.979Z,7.72
2023-11-11T12:39:15.755Z,7.67
2023-11-11T12:42:27.601Z,7.59
2023-11-11T12:45:32.113Z,7.56
2023-11-11T12:48:35.872Z,7.49
2023-11-11T12:51:39.860Z,7.37
2023-11-11T12:54:42.541Z,7.26
2023-11-11T12:57:44.937Z,7.31
2023-11-11T13:00:51.405Z,7.26
2023-11-11T13:03:53.794Z,7.33
2023-11-11T13:06:56.061Z,7.37
2023-11-11T13:09:58.228Z,7.28
2023-11-11T13:13:00.406Z,7.37
2023-11-11T13:16:02.765Z,7.37
2023-11-11T13:19:04.932Z,7.12
2023-11-11T13:22:10.594Z,7.09
2023-11-11T13:25:13.184Z,7.22
2023-11-11T13:28:15.718Z,7.27
2023-11-11T13:31:22.726Z,7.31
2023-11-11T13:34:25.384Z,7.15
2023-11-11T13:37:29.993Z,7.07
2023-11-11T13:40:41.136Z,7.21
2023-11-11T13:43:49.395Z,7.16
2023-11-11T13:46:52.368Z,7.15
2023-11-11T13:49:55.964Z,7.24
2023-11-11T13:53:00.875Z,7.16
2023-11-11T13:56:05.893Z,7.09
2023-11-11T13:59:10.362Z,7.10
2023-11-11T14:02:13.870Z,7.19
2023-11-11T14:05:23.160Z,7.04
2023-11-11T14:08:26.682Z,6.97
2023-11-11T14:11:29.278Z,6.92
2023-11-11T14:14:31.449Z,7.03
2023-11-11T14:17:34.381Z,7.04
2023-11-11T14:20:36.957Z,7.11
2023-11-11T14:23:41.348Z,7.15
2023-11-11T14:26:48.034Z,7.09
2023-11-11T14:29:50.117Z,7.00
2023-11-11T14:32:52.306Z,6.95
2023-11-11T14:35:54.578Z,6.92
2023-11-11T14:38:56.648Z,6.97
2023-11-11T14:41:59.054Z,6.81
2023-11-11T14:45:01.811Z,6.94
2023-11-11T14:48:04.259Z,6.85
2023-11-11T14:51:06.777Z,6.88
2023-11-11T14:54:10.774Z,6.81
2023-11-11T14:57:14.116Z,6.79
2023-11-11T15:00:24.358Z,6.77
2023-11-11T15:03:28.019Z,6.76
2023-11-11T15:06:33.342Z,6.79
2023-11-11T15:09:35.738Z,6.95
2023-11-11T15:12:40.761Z,6.89
2023-11-11T15:15:42.971Z,6.75
2023-11-11T15:18:46.406Z,6.58
2023-11-11T15:21:51.271Z,6.71
2023-11-11T15:24:56.874Z,6.64
2023-11-11T15:27:59.628Z,6.51
2023-11-11T15:31:01.871Z,6.27
2023-11-11T15:34:10.383Z,6.24
2023-11-11T15:37:16.101Z,6.07
2023-11-11T15:40:19.002Z,6.05
2023-11-11T15:43:21.140Z,5.94
2023-11-11T15:46:23.362Z,6.02
2023-11-11T15:49:26.540Z,6.01
2023-11-11T15:52:28.934Z,6.01
2023-11-11T15:55:32.216Z,5.90
2023-11-11T15:58:34.365Z,6.18
2023-11-11T16:01:42.753Z,6.02
2023-11-11T16:04:44.827Z,6.17
2023-11-11T16:07:47.428Z,6.10
2023-11-11T16:10:54.107Z,6.37
2023-11-11T16:14:07.655Z,6.15
2023-11-11T16:17:21.854Z,6.16
2023-11-11T16:20:24.990Z,6.10
2023-11-11T16:23:27.882Z,6.16
2023-11-11T16:26:33.383Z,6.07
2023-11-11T16:29:39.279Z,5.95
2023-11-11T16:32:45.070Z,5.91
2023-11-11T16:35:47.418Z,5.96
2023-11-11T16:38:49.442Z,5.90
2023-11-11T16:41:56.449Z,5.72
2023-11-11T16:44:59.060Z,5.99
2023-11-11T16:48:01.255Z,5.77
2023-11-11T16:51:04.550Z,5.89
2023-11-11T16:54:07.186Z,5.93
2023-11-11T16:57:10.912Z,5.82
2023-11-11T17:00:23.187Z,5.81
2023-11-11T17:03:26.738Z,5.90
2023-11-11T17:06:29.279Z,5.91
2023-11-11T17:09:33.125Z,6.21
2023-11-11T17:12:36.033Z,5.99
2023-11-11T17:15:39.384Z,5.90
2023-11-11T17:18:41.867Z,5.93
2023-11-11T17:21:45.022Z,5.89
2023-11-11T17:24:47.508Z,5.80
2023-11-11T17:27:50.273Z,5.70
2023-11-11T17:30:52.489Z,5.73
2023-11-11T17:33:57.708Z,5.76
2023-11-11T17:37:01.908Z,5.82
2023-11-11T17:40:07.645Z,6.05
2023-11-11T17:43:18.208Z,5.94
2023-11-11T17:46:24.410Z,5.79
2023-11-11T17:49:28.265Z,5.97
2023-11-11T17:52:32.233Z,5.93
2023-11-11T17:55:37.063Z,5.61
2023-11-11T17:58:39.528Z,5.71
2023-11-11T18:01:42.468Z,5.63
2023-11-11T18:04:46.137Z,5.68
2023-11-11T18:07:48.684Z,5.86
2023-11-11T18:10:51.495Z,5.69
2023-11-11T18:13:54.032Z,5.64
2023-11-11T18:16:56.934Z,5.62
2023-11-11T18:20:02.208Z,5.77
2023-11-11T18:23:09.676Z,5.80
2023-11-11T18:26:13.585Z,5.72
2023-11-11T18:29:16.336Z,5.75
2023-11-11T18:32:25.135Z,5.78
2023-11-11T18:35:35.099Z,5.85
2023-11-11T18:38:42.244Z,5.78
2023-11-11T18:41:44.821Z,5.88
2023-11-11T18:44:47.915Z,5.77
2023-11-11T18:47:51.233Z,5.48
2023-11-11T18:51:00.152Z,5.79
2023-11-11T18:54:14.498Z,5.55
2023-11-11T18:57:28.823Z,5.39
2023-11-11T19:00:47.391Z,5.18
2023-11-11T19:03:55.034Z,5.14
2023-11-11T19:07:00.987Z,5.09
2023-11-11T19:10:10.330Z,5.13
2023-11-11T19:13:14.687Z,5.07
2023-11-11T19:16:20.893Z,5.21
2023-11-11T19:19:24.759Z,5.11
2023-11-11T19:22:31.602Z,5.01
2023-11-11T19:25:37.301Z,4.94
2023-11-11T19:28:43.313Z,4.80
2023-11-11T19:31:48.408Z,5.06
2023-11-11T19:34:52.101Z,4.98
2023-11-11T19:37:57.382Z,4.92
2023-11-11T19:41:04.946Z,5.09
2023-11-11T19:44:10.564Z,4.90
2023-11-11T19:47:16.904Z,5.09
2023-11-11T19:50:22.820Z,5.29
2023-11-11T19:53:27.841Z,5.30
2023-11-11T19:56:31.826Z,5.13
2023-11-11T19:59:34.887Z,4.95
2023-11-11T20:02:38.358Z,4.88
2023-11-11T20:05:41.507Z,4.80
2023-11-11T20:08:44.379Z,4.64
2023-11-11T20:11:48.930Z,4.68
2023-11-11T20:14:51.610Z,5.10
2023-11-11T20:17:55.570Z,5.00
2023-11-11T20:20:58.289Z,5.16
2023-11-11T20:24:01.512Z,5.07
2023-11-11T20:27:04.360Z,5.08
2023-11-11T20:30:12.417Z,5.22
2023-11-11T20:33:15.153Z,5.52
2023-11-11T20:36:18.609Z,5.31
2023-11-11T20:39:25.401Z,5.17
2023-11-11T20:42:28.749Z,5.08
2023-11-11T20:45:32.814Z,5.15
2023-11-11T20:48:36.768Z,5.12
2023-11-11T20:51:48.620Z,5.01
2023-11-11T20:54:51.827Z,4.87
2023-11-11T20:57:55.188Z,4.70
2023-11-11T21:01:00.204Z,4.79
2023-11-11T21:04:03.081Z,4.83
2023-11-11T21:07:05.468Z,4.75
2023-11-11T21:10:09.809Z,4.92
2023-11-11T21:13:12.027Z,4.97
2023-11-11T21:16:14.520Z,4.90
2023-11-11T21:19:17.198Z,4.75
2023-11-11T21:22:19.264Z,4.69
2023-11-11T21:25:24.390Z,4.99
2023-11-11T21:28:26.582Z,5.00
2023-11-11T21:31:28.961Z,4.81
2023-11-11T21:34:31.356Z,4.40
2023-11-11T21:37:36.028Z,4.55
2023-11-11T21:40:38.895Z,4.42
2023-11-11T21:43:41.068Z,4.43
2023-11-11T21:46:44.149Z,4.49
2023-11-11T21:49:46.956Z,4.43
2023-11-11T21:52:50.461Z,4.30
2023-11-11T21:55:53.661Z,4.14
2023-11-11T21:58:56.065Z,4.02
2023-11-11T22:01:59.162Z,3.82
2023-11-11T22:05:01.486Z,3.69
2023-11-11T22:08:04.784Z,3.69
2023-11-11T22:11:11.230Z,3.87
2023-11-11T22:14:13.562Z,4.12
2023-11-11T22:17:16.630Z,3.91
2023-11-11T22:20:19.253Z,4.23
2023-11-11T22:23:21.767Z,4.10
2023-11-11T22:26:24.123Z,4.16
2023-11-11T22:29:26.553Z,4.23
2023-11-11T22:32:28.911Z,4.14
2023-11-11T22:35:31.115Z,4.06
2023-11-11T22:38:33.996Z,3.99
2023-11-11T22:41:36.914Z,4.09
2023-11-11T22:44:39.179Z,4.13
2023-11-11T22:47:47.413Z,4.35
2023-11-11T22:50:49.784Z,4.26
2023-11-11T22:53:52.149Z,4.30
2023-11-11T22:56:54.939Z,4.29
2023-11-11T22:59:59.807Z,4.27
2023-11-11T23:03:08.235Z,4.10
2023-11-11T23:06:11.869Z,3.80
2023-11-11T23:09:14.560Z,3.72
2023-11-11T23:12:18.842Z,3.53
2023-11-11T23:15:24.427Z,3.72
2023-11-11T23:18:26.748Z,3.70
2023-11-11T23:21:30.819Z,3.60
2023-11-11T23:24:35.594Z,3.48
2023-11-11T23:27:41.650Z,3.50
2023-11-11T23:30:44.238Z,3.88
2023-11-11T23:33:46.520Z,3.91
2023-11-11T23:36:48.724Z,4.14
2023-11-11T23:39:51.541Z,4.01
2023-11-11T23:42:54.371Z,3.80
2023-11-11T23:45:57.215Z,3.67
2023-11-11T23:48:59.344Z,3.71
2023-11-11T23:52:01.505Z,3.55
2023-11-11T23:55:06.395Z,3.43
2023-11-11T23:58:09.278Z,3.32
